Buena Vista, Kentucky
Current Conditions -  °F | °C
As of 12:55 PM on Friday 31 Oct 2014 (Local Time) from KIOB Reporting Station
Overcast Overcast  
Wind Chill: 45°   Ceiling: 1100
Heat Index: 45°   Visibility: 10mi
Dew Point: 45°   Wind: 3mph
Humidity: 100%   Direction: 260°W
Pressure: 29.95"   Gusts: NA
Location:  38.4145°N, 84.2859°W
Report Text: KIOB 311655Z AUTO 26003KT 10SM BKN011 BKN024 OVC033 07/07 A2995 RMK AO2
Loading
Personal Weather Stations






























Interactive Weather Map
Tropical Storm Tracking
New forecast layout! Learn more

10-Day Weather Forecast

Advertisements
Track Severe Weather on mobile